sensor_id;sensor_type;location;lat;lon;timestamp;P1;durP1;ratioP1;P2;durP2;ratioP2
14235;SDS011;7202;50.718;7.072;2022-11-25T00:01:32;10.52;;;2.90;;
14235;SDS011;7202;50.718;7.072;2022-11-25T00:04:02;5.72;;;2.55;;
14235;SDS011;7202;50.718;7.072;2022-11-25T00:06:34;7.93;;;2.92;;
14235;SDS011;7202;50.718;7.072;2022-11-25T00:09:04;6.60;;;3.00;;
14235;SDS011;7202;50.718;7.072;2022-11-25T00:11:35;6.95;;;2.88;;
14235;SDS011;7202;50.718;7.072;2022-11-25T00:14:05;8.98;;;3.17;;
14235;SDS011;7202;50.718;7.072;2022-11-25T00:16:34;7.85;;;3.03;;
14235;SDS011;7202;50.718;7.072;2022-11-25T00:19:04;5.60;;;2.42;;
14235;SDS011;7202;50.718;7.072;2022-11-25T00:21:33;5.63;;;2.67;;
14235;SDS011;7202;50.718;7.072;2022-11-25T00:24:03;8.43;;;3.20;;
14235;SDS011;7202;50.718;7.072;2022-11-25T00:26:34;8.13;;;2.88;;
14235;SDS011;7202;50.718;7.072;2022-11-25T00:29:04;8.95;;;3.08;;
14235;SDS011;7202;50.718;7.072;2022-11-25T00:31:35;10.80;;;3.25;;
14235;SDS011;7202;50.718;7.072;2022-11-25T00:34:08;9.88;;;3.05;;
14235;SDS011;7202;50.718;7.072;2022-11-25T00:36:39;5.45;;;2.65;;
14235;SDS011;7202;50.718;7.072;2022-11-25T00:39:09;7.95;;;3.33;;
14235;SDS011;7202;50.718;7.072;2022-11-25T00:41:38;5.53;;;2.95;;
14235;SDS011;7202;50.718;7.072;2022-11-25T00:44:24;11.20;;;3.15;;
14235;SDS011;7202;50.718;7.072;2022-11-25T00:47:04;10.18;;;3.30;;
14235;SDS011;7202;50.718;7.072;2022-11-25T00:49:37;6.38;;;3.00;;
14235;SDS011;7202;50.718;7.072;2022-11-25T00:52:06;10.55;;;3.30;;
14235;SDS011;7202;50.718;7.072;2022-11-25T00:54:36;12.85;;;3.20;;
14235;SDS011;7202;50.718;7.072;2022-11-25T00:57:04;7.93;;;2.90;;
14235;SDS011;7202;50.718;7.072;2022-11-25T00:59:33;7.70;;;2.72;;
14235;SDS011;7202;50.718;7.072;2022-11-25T01:02:01;11.18;;;3.25;;
14235;SDS011;7202;50.718;7.072;2022-11-25T01:04:30;12.15;;;3.33;;
14235;SDS011;7202;50.718;7.072;2022-11-25T01:07:00;13.77;;;3.30;;
14235;SDS011;7202;50.718;7.072;2022-11-25T01:09:29;13.85;;;3.20;;
14235;SDS011;7202;50.718;7.072;2022-11-25T01:11:58;14.20;;;3.47;;
14235;SDS011;7202;50.718;7.072;2022-11-25T01:14:29;11.95;;;3.67;;
14235;SDS011;7202;50.718;7.072;2022-11-25T01:16:59;13.13;;;4.07;;
14235;SDS011;7202;50.718;7.072;2022-11-25T01:19:27;13.15;;;3.67;;
14235;SDS011;7202;50.718;7.072;2022-11-25T01:21:58;9.15;;;3.30;;
14235;SDS011;7202;50.718;7.072;2022-11-25T01:24:28;9.38;;;2.90;;
14235;SDS011;7202;50.718;7.072;2022-11-25T01:26:57;10.80;;;3.20;;
14235;SDS011;7202;50.718;7.072;2022-11-25T01:29:25;10.50;;;2.92;;
14235;SDS011;7202;50.718;7.072;2022-11-25T01:31:54;10.75;;;3.28;;
14235;SDS011;7202;50.718;7.072;2022-11-25T01:34:24;8.73;;;3.35;;
14235;SDS011;7202;50.718;7.072;2022-11-25T01:36:56;15.57;;;3.60;;
14235;SDS011;7202;50.718;7.072;2022-11-25T01:39:27;9.82;;;3.00;;
14235;SDS011;7202;50.718;7.072;2022-11-25T01:41:59;10.15;;;2.80;;
14235;SDS011;7202;50.718;7.072;2022-11-25T01:44:29;11.05;;;2.92;;
14235;SDS011;7202;50.718;7.072;2022-11-25T01:46:59;10.50;;;2.55;;
14235;SDS011;7202;50.718;7.072;2022-11-25T01:49:34;11.75;;;2.97;;
14235;SDS011;7202;50.718;7.072;2022-11-25T01:52:08;8.93;;;3.28;;
14235;SDS011;7202;50.718;7.072;2022-11-25T01:54:43;11.07;;;3.15;;
14235;SDS011;7202;50.718;7.072;2022-11-25T01:57:16;8.68;;;2.95;;
14235;SDS011;7202;50.718;7.072;2022-11-25T01:59:49;9.80;;;2.97;;
14235;SDS011;7202;50.718;7.072;2022-11-25T02:02:21;11.15;;;3.13;;
14235;SDS011;7202;50.718;7.072;2022-11-25T02:04:50;9.77;;;2.90;;
14235;SDS011;7202;50.718;7.072;2022-11-25T02:07:24;12.00;;;3.03;;
14235;SDS011;7202;50.718;7.072;2022-11-25T02:09:57;14.95;;;3.50;;
14235;SDS011;7202;50.718;7.072;2022-11-25T02:12:28;6.75;;;2.90;;
14235;SDS011;7202;50.718;7.072;2022-11-25T02:14:58;13.45;;;3.28;;
14235;SDS011;7202;50.718;7.072;2022-11-25T02:17:27;14.50;;;3.95;;
14235;SDS011;7202;50.718;7.072;2022-11-25T02:19:58;12.15;;;3.10;;
14235;SDS011;7202;50.718;7.072;2022-11-25T02:22:33;13.57;;;3.28;;
14235;SDS011;7202;50.718;7.072;2022-11-25T02:25:16;9.50;;;3.20;;
14235;SDS011;7202;50.718;7.072;2022-11-25T02:27:49;8.38;;;3.15;;
14235;SDS011;7202;50.718;7.072;2022-11-25T02:30:21;12.55;;;3.28;;
14235;SDS011;7202;50.718;7.072;2022-11-25T02:32:50;11.57;;;3.35;;
14235;SDS011;7202;50.718;7.072;2022-11-25T02:35:27;12.55;;;3.38;;
14235;SDS011;7202;50.718;7.072;2022-11-25T02:37:59;10.35;;;2.90;;
14235;SDS011;7202;50.718;7.072;2022-11-25T02:40:41;14.15;;;3.72;;
14235;SDS011;7202;50.718;7.072;2022-11-25T02:43:13;9.82;;;2.90;;
14235;SDS011;7202;50.718;7.072;2022-11-25T02:45:48;8.32;;;3.05;;
14235;SDS011;7202;50.718;7.072;2022-11-25T02:48:21;7.40;;;2.90;;
14235;SDS011;7202;50.718;7.072;2022-11-25T02:51:11;8.27;;;3.22;;
14235;SDS011;7202;50.718;7.072;2022-11-25T02:53:42;10.10;;;3.05;;
14235;SDS011;7202;50.718;7.072;2022-11-25T02:56:12;12.25;;;3.42;;
14235;SDS011;7202;50.718;7.072;2022-11-25T02:58:42;11.15;;;3.63;;
14235;SDS011;7202;50.718;7.072;2022-11-25T03:01:11;10.63;;;3.33;;
14235;SDS011;7202;50.718;7.072;2022-11-25T03:03:39;13.90;;;3.40;;
14235;SDS011;7202;50.718;7.072;2022-11-25T03:06:08;8.93;;;2.72;;
14235;SDS011;7202;50.718;7.072;2022-11-25T03:08:36;8.45;;;2.67;;
14235;SDS011;7202;50.718;7.072;2022-11-25T03:11:08;6.80;;;2.90;;
14235;SDS011;7202;50.718;7.072;2022-11-25T03:13:38;7.60;;;2.35;;
14235;SDS011;7202;50.718;7.072;2022-11-25T03:16:08;8.88;;;2.72;;
14235;SDS011;7202;50.718;7.072;2022-11-25T03:18:37;11.77;;;2.88;;
14235;SDS011;7202;50.718;7.072;2022-11-25T03:21:05;10.02;;;3.28;;
14235;SDS011;7202;50.718;7.072;2022-11-25T03:23:34;5.90;;;2.65;;
14235;SDS011;7202;50.718;7.072;2022-11-25T03:26:03;14.88;;;3.42;;
14235;SDS011;7202;50.718;7.072;2022-11-25T03:28:33;7.68;;;2.55;;
14235;SDS011;7202;50.718;7.072;2022-11-25T03:31:03;7.93;;;2.72;;
14235;SDS011;7202;50.718;7.072;2022-11-25T03:33:37;6.97;;;2.90;;
14235;SDS011;7202;50.718;7.072;2022-11-25T03:36:06;7.95;;;3.33;;
14235;SDS011;7202;50.718;7.072;2022-11-25T03:38:34;12.07;;;3.53;;
14235;SDS011;7202;50.718;7.072;2022-11-25T03:41:03;11.88;;;3.38;;
14235;SDS011;7202;50.718;7.072;2022-11-25T03:43:32;10.27;;;3.05;;
14235;SDS011;7202;50.718;7.072;2022-11-25T03:46:01;9.70;;;2.92;;
14235;SDS011;7202;50.718;7.072;2022-11-25T03:48:32;9.93;;;2.55;;
14235;SDS011;7202;50.718;7.072;2022-11-25T03:51:00;3.92;;;2.55;;
14235;SDS011;7202;50.718;7.072;2022-11-25T03:53:29;7.65;;;2.38;;
14235;SDS011;7202;50.718;7.072;2022-11-25T03:56:00;15.27;;;3.30;;
14235;SDS011;7202;50.718;7.072;2022-11-25T03:58:28;14.80;;;3.55;;
14235;SDS011;7202;50.718;7.072;2022-11-25T04:00:58;12.45;;;2.80;;
14235;SDS011;7202;50.718;7.072;2022-11-25T04:03:29;14.98;;;3.10;;
14235;SDS011;7202;50.718;7.072;2022-11-25T04:05:58;9.63;;;2.92;;
14235;SDS011;7202;50.718;7.072;2022-11-25T04:08:28;5.88;;;2.72;;
14235;SDS011;7202;50.718;7.072;2022-11-25T04:10:57;8.00;;;2.53;;
14235;SDS011;7202;50.718;7.072;2022-11-25T04:13:30;11.65;;;3.13;;
14235;SDS011;7202;50.718;7.072;2022-11-25T04:15:58;11.55;;;2.80;;
14235;SDS011;7202;50.718;7.072;2022-11-25T04:18:26;7.50;;;2.90;;
14235;SDS011;7202;50.718;7.072;2022-11-25T04:20:59;11.27;;;2.78;;
14235;SDS011;7202;50.718;7.072;2022-11-25T04:23:27;7.47;;;2.85;;
14235;SDS011;7202;50.718;7.072;2022-11-25T04:26:00;10.82;;;3.08;;
14235;SDS011;7202;50.718;7.072;2022-11-25T04:28:34;5.43;;;2.67;;
14235;SDS011;7202;50.718;7.072;2022-11-25T04:31:04;6.57;;;3.20;;
14235;SDS011;7202;50.718;7.072;2022-11-25T04:33:35;4.38;;;2.72;;
14235;SDS011;7202;50.718;7.072;2022-11-25T04:36:06;6.35;;;3.20;;
14235;SDS011;7202;50.718;7.072;2022-11-25T04:38:35;7.35;;;2.45;;
14235;SDS011;7202;50.718;7.072;2022-11-25T04:41:04;6.63;;;2.88;;
14235;SDS011;7202;50.718;7.072;2022-11-25T04:43:38;10.77;;;3.47;;
14235;SDS011;7202;50.718;7.072;2022-11-25T04:46:11;13.77;;;3.25;;
14235;SDS011;7202;50.718;7.072;2022-11-25T04:48:47;6.45;;;3.13;;
14235;SDS011;7202;50.718;7.072;2022-11-25T04:51:17;6.25;;;2.80;;
14235;SDS011;7202;50.718;7.072;2022-11-25T04:53:49;6.53;;;2.83;;
14235;SDS011;7202;50.718;7.072;2022-11-25T04:56:18;7.13;;;3.20;;
14235;SDS011;7202;50.718;7.072;2022-11-25T04:58:50;7.03;;;2.63;;
14235;SDS011;7202;50.718;7.072;2022-11-25T05:01:39;8.50;;;3.17;;
14235;SDS011;7202;50.718;7.072;2022-11-25T05:04:19;6.50;;;2.70;;
14235;SDS011;7202;50.718;7.072;2022-11-25T05:06:49;9.88;;;3.58;;
14235;SDS011;7202;50.718;7.072;2022-11-25T05:09:19;8.73;;;3.35;;
14235;SDS011;7202;50.718;7.072;2022-11-25T05:11:56;10.85;;;3.38;;
14235;SDS011;7202;50.718;7.072;2022-11-25T05:14:25;13.27;;;3.45;;
14235;SDS011;7202;50.718;7.072;2022-11-25T05:16:54;13.15;;;3.28;;
14235;SDS011;7202;50.718;7.072;2022-11-25T05:19:22;10.77;;;3.42;;
14235;SDS011;7202;50.718;7.072;2022-11-25T05:21:52;8.73;;;3.05;;
14235;SDS011;7202;50.718;7.072;2022-11-25T05:24:23;8.55;;;3.42;;
14235;SDS011;7202;50.718;7.072;2022-11-25T05:26:52;6.80;;;3.08;;
14235;SDS011;7202;50.718;7.072;2022-11-25T05:29:22;14.10;;;3.53;;
14235;SDS011;7202;50.718;7.072;2022-11-25T05:31:52;14.98;;;3.65;;
14235;SDS011;7202;50.718;7.072;2022-11-25T05:34:20;9.38;;;3.92;;
14235;SDS011;7202;50.718;7.072;2022-11-25T05:36:49;13.50;;;4.28;;
14235;SDS011;7202;50.718;7.072;2022-11-25T05:39:19;8.65;;;3.60;;
14235;SDS011;7202;50.718;7.072;2022-11-25T05:42:19;11.60;;;4.18;;
14235;SDS011;7202;50.718;7.072;2022-11-25T05:44:48;10.80;;;3.70;;
14235;SDS011;7202;50.718;7.072;2022-11-25T05:47:16;11.93;;;3.67;;
14235;SDS011;7202;50.718;7.072;2022-11-25T05:49:46;11.18;;;4.03;;
14235;SDS011;7202;50.718;7.072;2022-11-25T05:52:15;11.57;;;3.70;;
14235;SDS011;7202;50.718;7.072;2022-11-25T05:54:55;7.55;;;3.05;;
14235;SDS011;7202;50.718;7.072;2022-11-25T05:57:25;8.45;;;3.22;;
14235;SDS011;7202;50.718;7.072;2022-11-25T05:59:59;11.98;;;3.15;;
14235;SDS011;7202;50.718;7.072;2022-11-25T06:02:50;5.72;;;2.95;;
14235;SDS011;7202;50.718;7.072;2022-11-25T06:05:20;8.90;;;3.00;;
14235;SDS011;7202;50.718;7.072;2022-11-25T06:07:49;10.23;;;3.58;;
14235;SDS011;7202;50.718;7.072;2022-11-25T06:10:21;8.55;;;3.65;;
14235;SDS011;7202;50.718;7.072;2022-11-25T06:12:51;7.50;;;3.17;;
14235;SDS011;7202;50.718;7.072;2022-11-25T06:15:20;10.00;;;3.53;;
14235;SDS011;7202;50.718;7.072;2022-11-25T06:17:51;4.80;;;2.80;;
14235;SDS011;7202;50.718;7.072;2022-11-25T06:20:23;10.23;;;3.65;;
14235;SDS011;7202;50.718;7.072;2022-11-25T06:22:53;7.70;;;3.30;;
14235;SDS011;7202;50.718;7.072;2022-11-25T06:25:29;8.27;;;3.40;;
14235;SDS011;7202;50.718;7.072;2022-11-25T06:28:00;7.60;;;3.85;;
14235;SDS011;7202;50.718;7.072;2022-11-25T06:30:47;9.20;;;3.97;;
14235;SDS011;7202;50.718;7.072;2022-11-25T06:33:27;8.82;;;4.13;;
14235;SDS011;7202;50.718;7.072;2022-11-25T06:36:01;10.02;;;4.50;;
14235;SDS011;7202;50.718;7.072;2022-11-25T06:38:30;7.47;;;4.05;;
14235;SDS011;7202;50.718;7.072;2022-11-25T06:41:01;7.35;;;3.45;;
14235;SDS011;7202;50.718;7.072;2022-11-25T06:43:30;9.40;;;3.58;;
14235;SDS011;7202;50.718;7.072;2022-11-25T06:46:02;8.45;;;3.92;;
14235;SDS011;7202;50.718;7.072;2022-11-25T06:48:32;8.57;;;3.22;;
14235;SDS011;7202;50.718;7.072;2022-11-25T06:51:02;8.85;;;3.45;;
14235;SDS011;7202;50.718;7.072;2022-11-25T06:53:32;11.10;;;3.83;;
14235;SDS011;7202;50.718;7.072;2022-11-25T06:56:06;11.15;;;3.60;;
14235;SDS011;7202;50.718;7.072;2022-11-25T06:58:36;6.20;;;3.30;;
14235;SDS011;7202;50.718;7.072;2022-11-25T07:01:06;10.65;;;3.40;;
14235;SDS011;7202;50.718;7.072;2022-11-25T07:03:38;9.75;;;3.17;;
14235;SDS011;7202;50.718;7.072;2022-11-25T07:06:10;10.30;;;3.15;;
14235;SDS011;7202;50.718;7.072;2022-11-25T07:08:39;8.82;;;3.20;;
14235;SDS011;7202;50.718;7.072;2022-11-25T07:11:11;10.07;;;3.17;;
14235;SDS011;7202;50.718;7.072;2022-11-25T07:13:43;6.60;;;2.95;;
14235;SDS011;7202;50.718;7.072;2022-11-25T07:16:12;8.13;;;2.72;;
14235;SDS011;7202;50.718;7.072;2022-11-25T07:18:42;9.20;;;2.83;;
14235;SDS011;7202;50.718;7.072;2022-11-25T07:21:11;10.38;;;2.95;;
14235;SDS011;7202;50.718;7.072;2022-11-25T07:23:42;11.10;;;2.95;;
14235;SDS011;7202;50.718;7.072;2022-11-25T07:26:13;10.45;;;3.28;;
14235;SDS011;7202;50.718;7.072;2022-11-25T07:28:43;10.60;;;3.08;;
14235;SDS011;7202;50.718;7.072;2022-11-25T07:31:14;7.53;;;2.90;;
14235;SDS011;7202;50.718;7.072;2022-11-25T07:33:57;6.30;;;2.67;;
14235;SDS011;7202;50.718;7.072;2022-11-25T07:36:27;5.13;;;2.25;;
14235;SDS011;7202;50.718;7.072;2022-11-25T07:38:56;6.68;;;2.60;;
14235;SDS011;7202;50.718;7.072;2022-11-25T07:41:27;7.35;;;2.50;;
14235;SDS011;7202;50.718;7.072;2022-11-25T07:43:57;8.73;;;2.70;;
14235;SDS011;7202;50.718;7.072;2022-11-25T07:46:30;7.72;;;2.85;;
14235;SDS011;7202;50.718;7.072;2022-11-25T07:49:01;6.93;;;2.67;;
14235;SDS011;7202;50.718;7.072;2022-11-25T07:51:32;6.78;;;2.25;;
14235;SDS011;7202;50.718;7.072;2022-11-25T07:54:02;8.13;;;3.03;;
14235;SDS011;7202;50.718;7.072;2022-11-25T07:56:35;5.03;;;2.67;;
14235;SDS011;7202;50.718;7.072;2022-11-25T07:59:05;3.95;;;2.10;;
14235;SDS011;7202;50.718;7.072;2022-11-25T08:01:34;4.43;;;2.40;;
14235;SDS011;7202;50.718;7.072;2022-11-25T08:04:03;6.00;;;2.20;;
14235;SDS011;7202;50.718;7.072;2022-11-25T08:06:36;7.75;;;2.47;;
14235;SDS011;7202;50.718;7.072;2022-11-25T08:09:05;4.30;;;2.35;;
14235;SDS011;7202;50.718;7.072;2022-11-25T08:11:35;9.52;;;2.65;;
14235;SDS011;7202;50.718;7.072;2022-11-25T08:14:04;4.80;;;2.60;;
14235;SDS011;7202;50.718;7.072;2022-11-25T08:16:34;4.50;;;2.53;;
14235;SDS011;7202;50.718;7.072;2022-11-25T08:19:04;6.40;;;2.80;;
14235;SDS011;7202;50.718;7.072;2022-11-25T08:21:34;9.25;;;2.95;;
14235;SDS011;7202;50.718;7.072;2022-11-25T08:24:03;5.88;;;2.30;;
14235;SDS011;7202;50.718;7.072;2022-11-25T08:26:32;5.90;;;2.40;;
14235;SDS011;7202;50.718;7.072;2022-11-25T08:29:05;6.32;;;2.58;;
14235;SDS011;7202;50.718;7.072;2022-11-25T08:31:35;4.72;;;2.65;;
14235;SDS011;7202;50.718;7.072;2022-11-25T08:34:05;6.97;;;3.15;;
14235;SDS011;7202;50.718;7.072;2022-11-25T08:36:34;4.05;;;2.58;;
14235;SDS011;7202;50.718;7.072;2022-11-25T08:39:04;7.07;;;2.70;;
14235;SDS011;7202;50.718;7.072;2022-11-25T08:41:54;4.38;;;2.35;;
14235;SDS011;7202;50.718;7.072;2022-11-25T08:44:24;5.47;;;1.83;;
14235;SDS011;7202;50.718;7.072;2022-11-25T08:46:55;8.73;;;3.88;;
14235;SDS011;7202;50.718;7.072;2022-11-25T08:49:25;8.57;;;3.05;;
14235;SDS011;7202;50.718;7.072;2022-11-25T08:52:02;9.38;;;3.88;;
14235;SDS011;7202;50.718;7.072;2022-11-25T08:54:30;8.27;;;4.20;;
14235;SDS011;7202;50.718;7.072;2022-11-25T08:56:59;9.70;;;4.13;;
14235;SDS011;7202;50.718;7.072;2022-11-25T08:59:29;10.45;;;4.05;;
14235;SDS011;7202;50.718;7.072;2022-11-25T09:01:57;7.25;;;4.40;;
14235;SDS011;7202;50.718;7.072;2022-11-25T09:04:26;12.38;;;4.57;;
14235;SDS011;7202;50.718;7.072;2022-11-25T09:06:55;12.27;;;4.05;;
14235;SDS011;7202;50.718;7.072;2022-11-25T09:09:23;6.38;;;3.40;;
14235;SDS011;7202;50.718;7.072;2022-11-25T09:11:52;7.53;;;3.53;;
14235;SDS011;7202;50.718;7.072;2022-11-25T09:14:21;7.22;;;3.15;;
14235;SDS011;7202;50.718;7.072;2022-11-25T09:16:51;6.50;;;2.97;;
14235;SDS011;7202;50.718;7.072;2022-11-25T09:19:22;6.22;;;3.05;;
14235;SDS011;7202;50.718;7.072;2022-11-25T09:21:51;5.13;;;3.00;;
14235;SDS011;7202;50.718;7.072;2022-11-25T09:24:20;6.68;;;2.67;;
14235;SDS011;7202;50.718;7.072;2022-11-25T09:26:48;6.63;;;2.92;;
14235;SDS011;7202;50.718;7.072;2022-11-25T09:29:17;5.75;;;3.05;;
14235;SDS011;7202;50.718;7.072;2022-11-25T09:31:46;7.55;;;2.65;;
14235;SDS011;7202;50.718;7.072;2022-11-25T09:34:22;6.47;;;2.80;;
14235;SDS011;7202;50.718;7.072;2022-11-25T09:36:50;4.88;;;2.60;;
14235;SDS011;7202;50.718;7.072;2022-11-25T09:39:19;7.45;;;2.85;;
14235;SDS011;7202;50.718;7.072;2022-11-25T09:41:52;4.25;;;2.78;;
14235;SDS011;7202;50.718;7.072;2022-11-25T09:44:53;5.53;;;2.28;;
14235;SDS011;7202;50.718;7.072;2022-11-25T09:47:49;4.43;;;2.00;;
14235;SDS011;7202;50.718;7.072;2022-11-25T09:50:30;5.72;;;2.10;;
14235;SDS011;7202;50.718;7.072;2022-11-25T09:53:14;6.00;;;2.25;;
14235;SDS011;7202;50.718;7.072;2022-11-25T09:55:51;7.07;;;2.25;;
14235;SDS011;7202;50.718;7.072;2022-11-25T09:58:29;5.05;;;2.17;;
14235;SDS011;7202;50.718;7.072;2022-11-25T10:01:02;4.85;;;2.10;;
14235;SDS011;7202;50.718;7.072;2022-11-25T10:03:33;5.65;;;2.60;;
14235;SDS011;7202;50.718;7.072;2022-11-25T10:06:09;7.93;;;2.03;;
14235;SDS011;7202;50.718;7.072;2022-11-25T10:08:43;6.07;;;1.98;;
14235;SDS011;7202;50.718;7.072;2022-11-25T10:11:17;5.63;;;1.83;;
14235;SDS011;7202;50.718;7.072;2022-11-25T10:13:56;5.30;;;1.75;;
14235;SDS011;7202;50.718;7.072;2022-11-25T10:16:29;4.63;;;1.70;;
14235;SDS011;7202;50.718;7.072;2022-11-25T10:19:02;6.70;;;1.70;;
14235;SDS011;7202;50.718;7.072;2022-11-25T10:21:39;6.85;;;1.98;;
14235;SDS011;7202;50.718;7.072;2022-11-25T10:24:10;5.75;;;1.90;;
14235;SDS011;7202;50.718;7.072;2022-11-25T10:26:41;5.97;;;2.10;;
14235;SDS011;7202;50.718;7.072;2022-11-25T10:29:24;3.75;;;1.42;;
14235;SDS011;7202;50.718;7.072;2022-11-25T10:32:00;6.82;;;1.90;;
14235;SDS011;7202;50.718;7.072;2022-11-25T10:34:39;5.28;;;1.58;;
14235;SDS011;7202;50.718;7.072;2022-11-25T10:37:16;8.90;;;2.33;;
14235;SDS011;7202;50.718;7.072;2022-11-25T10:39:50;5.70;;;1.70;;
14235;SDS011;7202;50.718;7.072;2022-11-25T10:42:19;7.40;;;1.80;;
14235;SDS011;7202;50.718;7.072;2022-11-25T10:44:49;5.15;;;1.80;;
14235;SDS011;7202;50.718;7.072;2022-11-25T10:47:24;7.63;;;2.28;;
14235;SDS011;7202;50.718;7.072;2022-11-25T10:52:54;7.70;;;1.50;;
14235;SDS011;7202;50.718;7.072;2022-11-25T10:55:26;6.60;;;1.70;;
14235;SDS011;7202;50.718;7.072;2022-11-25T10:57:56;4.78;;;1.77;;
14235;SDS011;7202;50.718;7.072;2022-11-25T11:00:27;8.73;;;1.60;;
14235;SDS011;7202;50.718;7.072;2022-11-25T11:02:59;5.93;;;1.52;;
14235;SDS011;7202;50.718;7.072;2022-11-25T11:05:45;11.20;;;2.05;;
14235;SDS011;7202;50.718;7.072;2022-11-25T11:08:18;8.20;;;2.05;;
14235;SDS011;7202;50.718;7.072;2022-11-25T11:11:09;6.97;;;1.67;;
14235;SDS011;7202;50.718;7.072;2022-11-25T11:13:48;7.88;;;1.77;;
14235;SDS011;7202;50.718;7.072;2022-11-25T11:16:28;6.50;;;1.90;;
14235;SDS011;7202;50.718;7.072;2022-11-25T11:18:59;6.05;;;1.70;;
14235;SDS011;7202;50.718;7.072;2022-11-25T11:21:28;4.97;;;1.60;;
14235;SDS011;7202;50.718;7.072;2022-11-25T11:24:00;6.78;;;1.60;;
14235;SDS011;7202;50.718;7.072;2022-11-25T11:26:31;9.43;;;1.88;;
14235;SDS011;7202;50.718;7.072;2022-11-25T11:29:02;7.05;;;1.80;;
14235;SDS011;7202;50.718;7.072;2022-11-25T11:31:38;6.07;;;1.77;;
14235;SDS011;7202;50.718;7.072;2022-11-25T11:34:21;7.43;;;1.85;;
14235;SDS011;7202;50.718;7.072;2022-11-25T11:37:08;7.55;;;1.83;;
14235;SDS011;7202;50.718;7.072;2022-11-25T11:39:53;8.02;;;1.88;;
14235;SDS011;7202;50.718;7.072;2022-11-25T11:42:31;11.35;;;1.90;;
14235;SDS011;7202;50.718;7.072;2022-11-25T11:45:13;9.80;;;1.88;;
14235;SDS011;7202;50.718;7.072;2022-11-25T11:47:55;8.15;;;2.20;;
14235;SDS011;7202;50.718;7.072;2022-11-25T11:50:30;7.85;;;1.70;;
14235;SDS011;7202;50.718;7.072;2022-11-25T11:53:03;6.28;;;1.80;;
14235;SDS011;7202;50.718;7.072;2022-11-25T11:55:45;8.35;;;1.77;;
14235;SDS011;7202;50.718;7.072;2022-11-25T11:58:44;10.13;;;2.65;;
14235;SDS011;7202;50.718;7.072;2022-11-25T12:01:26;10.75;;;2.15;;
14235;SDS011;7202;50.718;7.072;2022-11-25T12:04:07;7.50;;;1.52;;
14235;SDS011;7202;50.718;7.072;2022-11-25T12:06:44;8.52;;;1.83;;
14235;SDS011;7202;50.718;7.072;2022-11-25T12:09:19;7.32;;;1.92;;
14235;SDS011;7202;50.718;7.072;2022-11-25T12:11:53;10.55;;;2.13;;
14235;SDS011;7202;50.718;7.072;2022-11-25T12:14:29;9.63;;;2.20;;
14235;SDS011;7202;50.718;7.072;2022-11-25T12:17:05;9.32;;;2.35;;
14235;SDS011;7202;50.718;7.072;2022-11-25T12:19:40;7.50;;;1.63;;
14235;SDS011;7202;50.718;7.072;2022-11-25T12:22:17;9.98;;;1.80;;
14235;SDS011;7202;50.718;7.072;2022-11-25T12:24:52;8.48;;;1.92;;
14235;SDS011;7202;50.718;7.072;2022-11-25T12:27:30;10.63;;;2.03;;
14235;SDS011;7202;50.718;7.072;2022-11-25T12:30:04;9.40;;;1.85;;
14235;SDS011;7202;50.718;7.072;2022-11-25T12:32:45;6.15;;;1.90;;
14235;SDS011;7202;50.718;7.072;2022-11-25T12:35:22;12.02;;;2.45;;
14235;SDS011;7202;50.718;7.072;2022-11-25T12:38:01;10.05;;;2.40;;
14235;SDS011;7202;50.718;7.072;2022-11-25T12:40:36;8.88;;;1.92;;
14235;SDS011;7202;50.718;7.072;2022-11-25T12:43:19;7.70;;;1.98;;
14235;SDS011;7202;50.718;7.072;2022-11-25T12:45:59;9.27;;;2.03;;
14235;SDS011;7202;50.718;7.072;2022-11-25T12:48:35;8.45;;;1.80;;
14235;SDS011;7202;50.718;7.072;2022-11-25T12:51:09;6.53;;;1.98;;
14235;SDS011;7202;50.718;7.072;2022-11-25T12:53:46;9.05;;;2.42;;
14235;SDS011;7202;50.718;7.072;2022-11-25T12:56:23;9.75;;;2.13;;
14235;SDS011;7202;50.718;7.072;2022-11-25T12:59:11;6.13;;;1.92;;
14235;SDS011;7202;50.718;7.072;2022-11-25T13:02:03;8.38;;;2.03;;
14235;SDS011;7202;50.718;7.072;2022-11-25T13:05:02;6.70;;;2.15;;
14235;SDS011;7202;50.718;7.072;2022-11-25T13:08:10;8.13;;;1.80;;
14235;SDS011;7202;50.718;7.072;2022-11-25T13:10:54;5.03;;;1.48;;
14235;SDS011;7202;50.718;7.072;2022-11-25T13:13:50;8.90;;;2.03;;
14235;SDS011;7202;50.718;7.072;2022-11-25T13:16:29;12.75;;;2.30;;
14235;SDS011;7202;50.718;7.072;2022-11-25T13:18:59;10.02;;;2.15;;
14235;SDS011;7202;50.718;7.072;2022-11-25T13:21:27;4.82;;;1.80;;
14235;SDS011;7202;50.718;7.072;2022-11-25T13:23:56;9.80;;;2.50;;
14235;SDS011;7202;50.718;7.072;2022-11-25T13:38:07;5.97;;;1.98;;
14235;SDS011;7202;50.718;7.072;2022-11-25T13:40:55;10.38;;;2.22;;
14235;SDS011;7202;50.718;7.072;2022-11-25T13:43:24;9.63;;;1.80;;
14235;SDS011;7202;50.718;7.072;2022-11-25T13:45:54;11.45;;;1.75;;
14235;SDS011;7202;50.718;7.072;2022-11-25T13:48:25;9.30;;;2.17;;
14235;SDS011;7202;50.718;7.072;2022-11-25T13:53:41;5.18;;;1.92;;
14235;SDS011;7202;50.718;7.072;2022-11-25T13:56:24;5.97;;;2.00;;
14235;SDS011;7202;50.718;7.072;2022-11-25T14:04:54;6.53;;;1.60;;
14235;SDS011;7202;50.718;7.072;2022-11-25T14:07:31;7.65;;;2.08;;
14235;SDS011;7202;50.718;7.072;2022-11-25T14:10:20;7.60;;;1.85;;
14235;SDS011;7202;50.718;7.072;2022-11-25T14:16:11;7.03;;;1.85;;
14235;SDS011;7202;50.718;7.072;2022-11-25T14:19:01;6.97;;;2.25;;
14235;SDS011;7202;50.718;7.072;2022-11-25T14:22:11;8.55;;;1.88;;
14235;SDS011;7202;50.718;7.072;2022-11-25T14:24:51;10.02;;;2.13;;
14235;SDS011;7202;50.718;7.072;2022-11-25T14:27:24;5.82;;;1.40;;
14235;SDS011;7202;50.718;7.072;2022-11-25T14:29:56;4.05;;;1.55;;
14235;SDS011;7202;50.718;7.072;2022-11-25T14:32:29;7.95;;;1.85;;
14235;SDS011;7202;50.718;7.072;2022-11-25T14:35:04;5.43;;;1.70;;
14235;SDS011;7202;50.718;7.072;2022-11-25T14:37:39;10.85;;;2.20;;
14235;SDS011;7202;50.718;7.072;2022-11-25T14:40:13;6.25;;;1.30;;
14235;SDS011;7202;50.718;7.072;2022-11-25T14:42:46;8.10;;;1.67;;
14235;SDS011;7202;50.718;7.072;2022-11-25T14:45:20;8.25;;;1.60;;
14235;SDS011;7202;50.718;7.072;2022-11-25T14:47:50;7.90;;;2.83;;
14235;SDS011;7202;50.718;7.072;2022-11-25T14:50:20;6.88;;;1.45;;
14235;SDS011;7202;50.718;7.072;2022-11-25T14:53:08;6.13;;;1.65;;
14235;SDS011;7202;50.718;7.072;2022-11-25T14:55:40;6.15;;;1.45;;
14235;SDS011;7202;50.718;7.072;2022-11-25T14:58:14;5.25;;;1.42;;
14235;SDS011;7202;50.718;7.072;2022-11-25T15:00:49;7.60;;;1.90;;
14235;SDS011;7202;50.718;7.072;2022-11-25T15:03:19;5.10;;;1.52;;
14235;SDS011;7202;50.718;7.072;2022-11-25T15:05:52;5.40;;;1.70;;
14235;SDS011;7202;50.718;7.072;2022-11-25T15:08:24;7.85;;;2.17;;
14235;SDS011;7202;50.718;7.072;2022-11-25T15:10:53;5.68;;;1.63;;
14235;SDS011;7202;50.718;7.072;2022-11-25T15:13:25;6.35;;;2.28;;
14235;SDS011;7202;50.718;7.072;2022-11-25T15:15:59;4.78;;;2.05;;
14235;SDS011;7202;50.718;7.072;2022-11-25T15:18:35;8.60;;;2.08;;
14235;SDS011;7202;50.718;7.072;2022-11-25T15:21:05;4.28;;;1.50;;
14235;SDS011;7202;50.718;7.072;2022-11-25T15:23:36;6.65;;;2.17;;
14235;SDS011;7202;50.718;7.072;2022-11-25T15:26:12;4.72;;;1.80;;
14235;SDS011;7202;50.718;7.072;2022-11-25T15:28:44;4.55;;;1.98;;
14235;SDS011;7202;50.718;7.072;2022-11-25T15:31:16;7.40;;;2.33;;
14235;SDS011;7202;50.718;7.072;2022-11-25T15:33:47;7.47;;;2.28;;
14235;SDS011;7202;50.718;7.072;2022-11-25T15:36:21;6.15;;;2.35;;
14235;SDS011;7202;50.718;7.072;2022-11-25T15:38:51;10.32;;;2.95;;
14235;SDS011;7202;50.718;7.072;2022-11-25T15:41:31;11.15;;;3.05;;
14235;SDS011;7202;50.718;7.072;2022-11-25T15:44:02;9.57;;;2.53;;
14235;SDS011;7202;50.718;7.072;2022-11-25T15:46:32;10.10;;;2.67;;
14235;SDS011;7202;50.718;7.072;2022-11-25T15:49:03;9.32;;;2.47;;
14235;SDS011;7202;50.718;7.072;2022-11-25T15:51:35;7.97;;;2.25;;
14235;SDS011;7202;50.718;7.072;2022-11-25T15:54:14;5.72;;;2.35;;
14235;SDS011;7202;50.718;7.072;2022-11-25T15:56:47;6.85;;;2.33;;
14235;SDS011;7202;50.718;7.072;2022-11-25T15:59:37;9.15;;;2.55;;
14235;SDS011;7202;50.718;7.072;2022-11-25T16:02:32;6.03;;;2.45;;